Benet Lake, Wisconsin
Current Conditions -  °F | °C
As of 4:53 PM on Thursday 23 Oct 2014 (Local Time) from KENW Reporting Station
Overcast Overcast  
Wind Chill: 57°   Ceiling: 10000
Heat Index: 57°   Visibility: 10mi
Dew Point: 43°   Wind: 8mph
Humidity: 59%   Direction: 210°SSW
Pressure: 30.07"   Gusts: NA
Location:  42.54°N, 88.02°W
Report Text: KENW 232153Z AUTO 21007KT 10SM FEW055 OVC100 14/06 A3007 RMK AO2 SLP185 T01390061
Loading
Personal Weather Stations






























Interactive Weather Map
Tropical Storm Tracking
New forecast layout! Learn more

10-Day Weather Forecast

Advertisements
Track Severe Weather on mobile